createdAt,value
2023-03-03T00:01:35.367Z,8.70
2023-03-03T00:04:03.395Z,8.80
2023-03-03T00:06:31.516Z,8.70
2023-03-03T00:08:59.523Z,8.60
2023-03-03T00:11:27.658Z,8.60
2023-03-03T00:13:56.163Z,8.60
2023-03-03T00:16:26.678Z,8.60
2023-03-03T00:18:54.934Z,8.60
2023-03-03T00:21:29.398Z,8.60
2023-03-03T00:24:04.426Z,8.70
2023-03-03T00:26:36.669Z,8.70
2023-03-03T00:29:04.901Z,8.70
2023-03-03T00:31:35.491Z,8.70
2023-03-03T00:34:12.870Z,8.70
2023-03-03T00:36:41.017Z,8.70
2023-03-03T00:39:27.806Z,8.60
2023-03-03T00:41:55.928Z,8.50
2023-03-03T00:44:40.193Z,8.50
2023-03-03T00:47:32.065Z,8.60
2023-03-03T00:50:30.856Z,8.60
2023-03-03T00:53:04.930Z,8.60
2023-03-03T00:55:33.235Z,8.60
2023-03-03T00:58:01.304Z,8.60
2023-03-03T01:00:29.466Z,8.70
2023-03-03T01:02:58.924Z,8.70
2023-03-03T01:05:27.198Z,8.70
2023-03-03T01:07:55.378Z,8.60
2023-03-03T01:10:23.509Z,8.50
2023-03-03T01:12:51.530Z,8.50
2023-03-03T01:15:19.564Z,8.50
2023-03-03T01:17:47.598Z,8.50
2023-03-03T01:20:17.095Z,8.40
2023-03-03T01:22:45.358Z,8.50
2023-03-03T01:25:13.382Z,8.50
2023-03-03T01:27:41.438Z,8.50
2023-03-03T01:30:10.463Z,8.60
2023-03-03T01:32:38.572Z,8.60
2023-03-03T01:35:07.332Z,8.60
2023-03-03T01:37:37.088Z,8.60
2023-03-03T01:40:05.495Z,8.60
2023-03-03T01:42:33.576Z,8.60
2023-03-03T01:45:19.592Z,8.60
2023-03-03T01:47:50.167Z,8.50
2023-03-03T01:50:21.941Z,8.50
2023-03-03T01:52:51.387Z,8.50
2023-03-03T01:55:21.080Z,8.50
2023-03-03T01:57:50.644Z,8.50
2023-03-03T02:00:18.895Z,8.60
2023-03-03T02:02:46.948Z,8.60
2023-03-03T02:05:14.998Z,8.60
2023-03-03T02:07:42.983Z,8.60
2023-03-03T02:10:13.565Z,8.60
2023-03-03T02:12:44.091Z,8.60
2023-03-03T02:15:20.157Z,8.60
2023-03-03T02:17:48.374Z,8.50
2023-03-03T02:20:19.081Z,8.40
2023-03-03T02:22:50.344Z,8.40
2023-03-03T02:25:23.756Z,8.50
2023-03-03T02:27:53.150Z,8.50
2023-03-03T02:30:22.532Z,8.50
2023-03-03T02:32:50.562Z,8.50
2023-03-03T02:35:30.607Z,8.50
2023-03-03T02:38:01.281Z,8.60
2023-03-03T02:40:29.449Z,8.60
2023-03-03T02:42:58.838Z,8.60
2023-03-03T02:45:26.911Z,8.50
2023-03-03T02:47:55.022Z,8.50
2023-03-03T02:50:23.091Z,8.40
2023-03-03T02:52:51.162Z,8.40
2023-03-03T02:55:19.287Z,8.40
2023-03-03T02:57:47.392Z,8.50
2023-03-03T03:00:17.286Z,8.50
2023-03-03T03:02:45.438Z,8.50
2023-03-03T03:05:13.548Z,8.50
2023-03-03T03:07:41.608Z,8.50
2023-03-03T03:10:11.300Z,8.50
2023-03-03T03:12:39.397Z,8.50
2023-03-03T03:15:09.983Z,8.50
2023-03-03T03:17:39.766Z,8.40
2023-03-03T03:20:08.375Z,8.40
2023-03-03T03:22:36.445Z,8.40
2023-03-03T03:25:04.658Z,8.30
2023-03-03T03:27:32.730Z,8.30
2023-03-03T03:30:00.811Z,8.30
2023-03-03T03:32:28.945Z,8.30
2023-03-03T03:34:58.453Z,8.40
2023-03-03T03:37:26.517Z,8.40
2023-03-03T03:39:54.879Z,8.50
2023-03-03T03:42:22.940Z,8.50
2023-03-03T03:44:51.693Z,8.50
2023-03-03T03:47:22.767Z,8.50
2023-03-03T03:49:50.809Z,8.50
2023-03-03T03:52:20.241Z,8.40
2023-03-03T03:54:48.322Z,8.30
2023-03-03T03:57:16.387Z,8.30
2023-03-03T03:59:44.685Z,8.30
2023-03-03T04:02:12.924Z,8.40
2023-03-03T04:04:41.061Z,8.40
2023-03-03T04:07:11.437Z,8.40
2023-03-03T04:09:41.157Z,8.40
2023-03-03T04:12:09.242Z,8.50
2023-03-03T04:14:37.524Z,8.50
2023-03-03T04:17:05.586Z,8.50
2023-03-03T04:19:33.663Z,8.50
2023-03-03T04:22:01.719Z,8.40
2023-03-03T04:24:29.806Z,8.40
2023-03-03T04:26:59.291Z,8.30
2023-03-03T04:29:27.371Z,8.30
2023-03-03T04:31:55.465Z,8.30
2023-03-03T04:34:23.612Z,8.30
2023-03-03T04:36:51.728Z,8.40
2023-03-03T04:39:19.794Z,8.40
2023-03-03T04:41:47.865Z,8.40
2023-03-03T04:44:17.311Z,8.40
2023-03-03T04:46:45.370Z,8.40
2023-03-03T04:49:13.432Z,8.40
2023-03-03T04:51:41.533Z,8.40
2023-03-03T04:54:10.122Z,8.40
2023-03-03T04:56:38.250Z,8.30
2023-03-03T04:59:09.194Z,8.30
2023-03-03T05:01:38.596Z,8.30
2023-03-03T05:04:06.784Z,8.30
2023-03-03T05:06:34.927Z,8.30
2023-03-03T05:09:03.159Z,8.30
2023-03-03T05:11:32.601Z,8.40
2023-03-03T05:14:00.693Z,8.40
2023-03-03T05:16:28.756Z,8.40
2023-03-03T05:18:58.254Z,8.40
2023-03-03T05:21:26.312Z,8.40
2023-03-03T05:23:54.375Z,8.30
2023-03-03T05:26:22.453Z,8.30
2023-03-03T05:28:50.493Z,8.30
2023-03-03T05:31:18.593Z,8.20
2023-03-03T05:33:46.686Z,8.20
2023-03-03T05:36:16.148Z,8.10
2023-03-03T05:38:44.232Z,8.20
2023-03-03T05:41:12.275Z,8.20
2023-03-03T05:43:40.700Z,8.30
2023-03-03T05:46:09.072Z,8.30
2023-03-03T05:48:37.247Z,8.30
2023-03-03T05:51:05.615Z,8.30
2023-03-03T05:53:35.092Z,8.40
2023-03-03T05:56:03.158Z,8.40
2023-03-03T05:58:31.432Z,8.30
2023-03-03T06:00:59.511Z,8.30
2023-03-03T06:03:27.614Z,8.20
2023-03-03T06:05:55.725Z,8.20
2023-03-03T06:08:23.856Z,8.20
2023-03-03T06:10:53.295Z,8.20
2023-03-03T06:13:21.340Z,8.30
2023-03-03T06:15:49.589Z,8.30
2023-03-03T06:18:17.649Z,8.30
2023-03-03T06:20:52.237Z,8.30
2023-03-03T06:23:20.352Z,8.30
2023-03-03T06:25:48.406Z,8.30
2023-03-03T06:28:17.839Z,8.40
2023-03-03T06:30:45.933Z,8.30
2023-03-03T06:33:13.970Z,8.20
2023-03-03T06:35:42.059Z,8.20
2023-03-03T06:38:10.244Z,8.20
2023-03-03T06:40:38.347Z,8.20
2023-03-03T06:43:06.404Z,8.30
2023-03-03T06:45:35.918Z,8.30
2023-03-03T06:48:04.150Z,8.30
2023-03-03T06:50:32.314Z,8.30
2023-03-03T06:53:03.459Z,8.30
2023-03-03T06:55:31.631Z,8.30
2023-03-03T06:58:00.612Z,8.40
2023-03-03T07:00:31.083Z,8.40
2023-03-03T07:03:01.923Z,8.30
2023-03-03T07:05:30.177Z,8.30
2023-03-03T07:07:58.234Z,8.30
2023-03-03T07:10:27.059Z,8.30
2023-03-03T07:12:55.266Z,8.40
2023-03-03T07:15:24.567Z,8.40
2023-03-03T07:17:55.805Z,8.50
2023-03-03T07:20:29.426Z,8.50
2023-03-03T07:22:57.530Z,8.50
2023-03-03T07:25:30.383Z,8.60
2023-03-03T07:28:00.784Z,8.60
2023-03-03T07:30:29.569Z,8.70
2023-03-03T07:32:58.454Z,8.60
2023-03-03T07:35:48.967Z,8.70
2023-03-03T07:38:27.725Z,8.70
2023-03-03T07:40:56.402Z,8.70
2023-03-03T07:43:36.997Z,8.70
2023-03-03T07:46:24.937Z,8.80
2023-03-03T07:48:53.138Z,8.80
2023-03-03T07:51:25.379Z,8.90
2023-03-03T07:53:54.114Z,8.90
2023-03-03T07:56:28.965Z,9.00
2023-03-03T07:58:57.328Z,9.00
2023-03-03T08:01:40.468Z,9.10
2023-03-03T08:04:16.626Z,9.10
2023-03-03T08:06:53.170Z,9.20
2023-03-03T08:09:42.490Z,9.20
2023-03-03T08:12:41.931Z,9.20
2023-03-03T08:15:21.648Z,9.20
2023-03-03T08:17:49.931Z,9.20
2023-03-03T08:20:52.092Z,9.30
2023-03-03T08:23:21.849Z,9.30
2023-03-03T08:25:50.627Z,9.40
2023-03-03T08:28:18.770Z,9.40
2023-03-03T08:30:46.942Z,9.50
2023-03-03T08:33:15.241Z,9.50
2023-03-03T08:40:41.725Z,9.50
2023-03-03T08:43:09.992Z,9.50
2023-03-03T08:45:38.063Z,9.50
2023-03-03T08:48:06.613Z,9.50
2023-03-03T08:50:34.655Z,9.60
2023-03-03T08:53:02.722Z,9.60
2023-03-03T08:55:30.823Z,9.60
2023-03-03T08:58:00.214Z,9.70
2023-03-03T09:00:28.311Z,9.70
2023-03-03T09:02:56.423Z,9.70
2023-03-03T09:05:25.089Z,9.70
2023-03-03T09:07:53.263Z,9.70
2023-03-03T09:10:27.662Z,9.70
2023-03-03T09:12:58.337Z,9.60
2023-03-03T09:15:28.745Z,9.60
2023-03-03T09:17:58.422Z,9.70
2023-03-03T09:20:33.694Z,9.70
2023-03-03T09:23:01.834Z,9.70
2023-03-03T09:25:33.313Z,9.80
2023-03-03T09:28:02.179Z,9.80
2023-03-03T09:30:39.485Z,9.80
2023-03-03T09:36:05.390Z,9.90
2023-03-03T09:38:34.116Z,9.90
2023-03-03T09:41:25.604Z,9.80
2023-03-03T09:44:02.965Z,9.80
2023-03-03T09:46:36.004Z,9.80
2023-03-03T09:49:07.402Z,9.80
2023-03-03T09:51:52.819Z,9.80
2023-03-03T09:54:37.755Z,9.90
2023-03-03T09:57:08.571Z,9.90
2023-03-03T09:59:43.243Z,9.90
2023-03-03T10:02:23.512Z,10.00
2023-03-03T10:05:14.324Z,10.00
2023-03-03T10:07:47.112Z,10.00
2023-03-03T10:10:22.834Z,10.00
2023-03-03T10:12:58.358Z,10.00
2023-03-03T10:15:35.470Z,10.00
2023-03-03T10:18:13.160Z,9.90
2023-03-03T10:20:54.248Z,9.90
2023-03-03T10:23:23.418Z,9.90
2023-03-03T10:25:57.690Z,9.90
2023-03-03T10:28:42.710Z,9.90
2023-03-03T10:31:17.653Z,10.00
2023-03-03T10:33:50.753Z,10.00
2023-03-03T10:36:35.757Z,10.00
2023-03-03T10:39:11.518Z,10.00
2023-03-03T10:41:45.224Z,10.00
2023-03-03T10:44:48.930Z,10.00
2023-03-03T10:47:27.835Z,10.00
2023-03-03T10:50:02.990Z,9.90
2023-03-03T10:52:34.953Z,10.00
2023-03-03T10:55:29.689Z,9.90
2023-03-03T10:58:20.331Z,9.90
2023-03-03T11:00:50.497Z,10.00
2023-03-03T11:03:50.230Z,9.90
2023-03-03T11:06:20.535Z,9.90
2023-03-03T11:08:51.008Z,10.00
2023-03-03T11:11:21.399Z,10.00
2023-03-03T11:13:51.016Z,9.90
2023-03-03T11:16:26.949Z,9.90
2023-03-03T11:19:03.681Z,9.90
2023-03-03T11:21:34.798Z,9.80
2023-03-03T11:24:08.245Z,9.90
2023-03-03T11:26:44.132Z,9.90
2023-03-03T11:29:24.796Z,9.90
2023-03-03T11:31:54.800Z,9.90
2023-03-03T11:34:42.293Z,9.90
2023-03-03T11:37:13.347Z,9.90
2023-03-03T11:39:41.628Z,9.90
2023-03-03T11:42:13.077Z,9.90
2023-03-03T11:44:42.796Z,9.90
2023-03-03T11:47:14.752Z,9.90
2023-03-03T11:49:44.829Z,9.80
2023-03-03T11:52:22.785Z,9.80
2023-03-03T11:54:53.254Z,9.80
2023-03-03T11:57:22.822Z,9.70
2023-03-03T12:00:09.587Z,9.80
2023-03-03T12:02:51.908Z,9.80
2023-03-03T12:05:29.181Z,9.80
2023-03-03T12:08:00.908Z,9.80
2023-03-03T12:10:29.993Z,9.80
2023-03-03T12:13:02.772Z,9.80
2023-03-03T12:15:34.742Z,9.90
2023-03-03T12:18:27.475Z,9.90
2023-03-03T12:21:02.665Z,9.80
2023-03-03T12:23:43.042Z,9.80
2023-03-03T12:26:13.019Z,9.80
2023-03-03T12:28:43.311Z,9.80
2023-03-03T12:31:18.370Z,9.80
2023-03-03T12:33:54.150Z,9.80
2023-03-03T12:36:46.549Z,9.80
2023-03-03T12:39:32.698Z,9.80
2023-03-03T12:42:06.159Z,9.80
2023-03-03T12:44:36.766Z,9.90
2023-03-03T12:47:07.449Z,9.90
2023-03-03T12:49:44.142Z,9.90
2023-03-03T12:52:20.779Z,9.90
2023-03-03T12:54:58.569Z,9.80
2023-03-03T12:57:30.395Z,9.80
2023-03-03T13:00:27.144Z,9.80
2023-03-03T13:03:00.185Z,9.80
2023-03-03T13:05:30.608Z,9.80
2023-03-03T13:08:12.068Z,9.80
2023-03-03T13:10:43.160Z,9.90
2023-03-03T13:13:13.130Z,9.90
2023-03-03T13:15:54.886Z,9.90
2023-03-03T13:18:30.954Z,9.90
2023-03-03T13:21:01.218Z,9.90
2023-03-03T13:23:38.254Z,9.90
2023-03-03T13:26:09.452Z,9.80
2023-03-03T13:28:38.505Z,9.80
2023-03-03T13:31:09.908Z,9.80
2023-03-03T13:33:38.066Z,9.80
2023-03-03T13:36:08.607Z,9.80
2023-03-03T13:38:38.202Z,9.90
2023-03-03T13:41:11.100Z,9.90
2023-03-03T13:43:44.345Z,9.90
2023-03-03T13:46:16.068Z,9.90
2023-03-03T13:48:49.767Z,9.90
2023-03-03T13:51:24.856Z,9.90
2023-03-03T13:53:54.925Z,9.90
2023-03-03T13:56:37.349Z,9.80
2023-03-03T13:59:10.242Z,9.80
2023-03-03T14:01:46.065Z,9.80
2023-03-03T14:04:15.320Z,9.70
2023-03-03T14:06:43.469Z,9.80
2023-03-03T14:09:18.925Z,9.80
2023-03-03T14:11:50.859Z,9.80
2023-03-03T14:14:40.665Z,9.80
2023-03-03T14:17:12.476Z,9.80
2023-03-03T14:19:41.800Z,9.80
2023-03-03T14:22:23.595Z,9.80
2023-03-03T14:25:02.988Z,9.90
2023-03-03T14:27:37.238Z,9.80
2023-03-03T14:30:35.234Z,9.80
2023-03-03T14:33:15.960Z,9.80
2023-03-03T14:35:44.871Z,9.70
2023-03-03T14:38:14.483Z,9.70
2023-03-03T14:40:45.535Z,9.80
2023-03-03T14:43:25.817Z,9.80
2023-03-03T14:45:54.515Z,9.80
2023-03-03T14:48:23.405Z,9.80
2023-03-03T14:50:52.508Z,9.80
2023-03-03T14:53:33.025Z,9.80
2023-03-03T14:56:16.655Z,9.80
2023-03-03T14:58:46.127Z,9.80
2023-03-03T15:01:22.668Z,9.80
2023-03-03T15:03:52.596Z,9.70
2023-03-03T15:06:32.045Z,9.70
2023-03-03T15:09:22.781Z,9.70
2023-03-03T15:11:52.716Z,9.70
2023-03-03T15:14:26.610Z,9.70
2023-03-03T15:16:54.762Z,9.70
2023-03-03T15:19:32.304Z,9.70
2023-03-03T15:22:05.403Z,9.70
2023-03-03T15:24:38.406Z,9.80
2023-03-03T15:27:07.996Z,9.70
2023-03-03T15:29:38.550Z,9.70
2023-03-03T15:32:15.972Z,9.70
2023-03-03T15:34:45.603Z,9.60
2023-03-03T15:37:33.999Z,9.70
2023-03-03T15:40:06.103Z,9.70
2023-03-03T15:42:35.914Z,9.70
2023-03-03T15:45:09.052Z,9.70
2023-03-03T15:47:54.652Z,9.70
2023-03-03T15:50:27.839Z,9.70
2023-03-03T15:53:01.814Z,9.70
2023-03-03T15:55:37.371Z,9.70
2023-03-03T15:58:37.904Z,9.70
2023-03-03T16:01:10.750Z,9.70
2023-03-03T16:03:39.621Z,9.60
2023-03-03T16:06:09.624Z,9.60
2023-03-03T16:08:43.400Z,9.50
2023-03-03T16:11:13.867Z,9.50
2023-03-03T16:13:52.318Z,9.50
2023-03-03T16:16:32.538Z,9.50
2023-03-03T16:19:07.799Z,9.60
2023-03-03T16:21:48.639Z,9.60
2023-03-03T16:24:23.129Z,9.60
2023-03-03T16:26:54.316Z,9.60
2023-03-03T16:29:36.128Z,9.60
2023-03-03T16:32:06.718Z,9.60
2023-03-03T16:34:37.743Z,9.60
2023-03-03T16:37:12.642Z,9.60
2023-03-03T16:39:56.654Z,9.50
2023-03-03T16:42:27.939Z,9.50
2023-03-03T16:45:21.302Z,9.50
2023-03-03T16:48:04.350Z,9.50
2023-03-03T16:50:37.866Z,9.50
2023-03-03T16:53:11.770Z,9.50
2023-03-03T16:55:43.799Z,9.50
2023-03-03T16:58:20.970Z,9.50
2023-03-03T17:00:53.215Z,9.60
2023-03-03T17:03:47.132Z,9.60
2023-03-03T17:06:17.489Z,9.50
2023-03-03T17:09:00.290Z,9.50
2023-03-03T17:11:32.078Z,9.40
2023-03-03T17:14:21.693Z,9.40
2023-03-03T17:16:54.309Z,9.50
2023-03-03T17:19:41.431Z,9.50
2023-03-03T17:22:19.115Z,9.50
2023-03-03T17:24:52.359Z,9.50
2023-03-03T17:27:23.967Z,9.50
2023-03-03T17:29:59.577Z,9.50
2023-03-03T17:32:45.222Z,9.50
2023-03-03T17:35:22.561Z,9.50
2023-03-03T17:37:54.359Z,9.40
2023-03-03T17:40:31.205Z,9.40
2023-03-03T17:43:00.740Z,9.30
2023-03-03T17:45:29.182Z,9.40
2023-03-03T17:48:10.750Z,9.40
2023-03-03T17:51:07.010Z,9.40
2023-03-03T17:53:42.336Z,9.40
2023-03-03T17:56:16.053Z,9.40
2023-03-03T17:59:09.472Z,9.40
2023-03-03T18:01:46.522Z,9.40
2023-03-03T18:04:45.369Z,9.40
2023-03-03T18:07:42.734Z,9.40
2023-03-03T18:10:49.619Z,9.30
2023-03-03T18:13:30.078Z,9.30
2023-03-03T18:16:12.069Z,9.20
2023-03-03T18:18:55.526Z,9.20
2023-03-03T18:21:24.044Z,9.20
2023-03-03T18:23:53.608Z,9.30
2023-03-03T18:26:36.112Z,9.30
2023-03-03T18:29:10.995Z,9.30
2023-03-03T18:32:02.575Z,9.30
2023-03-03T18:34:38.171Z,9.30
2023-03-03T18:37:09.874Z,9.30
2023-03-03T18:39:41.157Z,9.30
2023-03-03T18:42:38.076Z,9.30
2023-03-03T18:45:13.843Z,9.30
2023-03-03T18:48:04.376Z,9.20
2023-03-03T18:50:33.157Z,9.20
2023-03-03T18:53:29.189Z,9.20
2023-03-03T18:55:59.204Z,9.20
2023-03-03T18:58:38.589Z,9.30
2023-03-03T19:01:41.806Z,9.30
2023-03-03T19:04:25.213Z,9.30
2023-03-03T19:07:12.266Z,9.30
2023-03-03T19:09:53.191Z,9.30
2023-03-03T19:12:43.801Z,9.30
2023-03-03T19:15:45.781Z,9.20
2023-03-03T19:18:19.036Z,9.20
2023-03-03T19:20:52.868Z,9.10
2023-03-03T19:23:22.149Z,9.20
2023-03-03T19:26:21.295Z,9.20
2023-03-03T19:28:51.528Z,9.20
2023-03-03T19:31:24.565Z,9.20
2023-03-03T19:33:56.750Z,9.20
2023-03-03T19:36:51.960Z,9.20
2023-03-03T19:39:36.433Z,9.20
2023-03-03T19:42:08.503Z,9.20
2023-03-03T19:44:49.524Z,9.20
2023-03-03T19:47:23.627Z,9.10
2023-03-03T19:49:59.621Z,9.10
2023-03-03T19:52:31.465Z,9.10
2023-03-03T19:55:24.681Z,9.10
2023-03-03T19:57:59.121Z,9.10
2023-03-03T20:00:33.645Z,9.20
2023-03-03T20:03:17.530Z,9.20
2023-03-03T20:05:46.524Z,9.20
2023-03-03T20:08:16.682Z,9.20
2023-03-03T20:10:47.256Z,9.20
2023-03-03T20:13:25.883Z,9.20
2023-03-03T20:15:58.271Z,9.10
2023-03-03T20:18:47.904Z,9.10
2023-03-03T20:21:24.829Z,9.00
2023-03-03T20:24:00.267Z,9.00
2023-03-03T20:26:30.904Z,8.90
2023-03-03T20:29:06.118Z,9.00
2023-03-03T20:31:37.008Z,9.00
2023-03-03T20:34:11.095Z,9.00
2023-03-03T20:36:44.250Z,9.10
2023-03-03T20:39:14.151Z,9.10
2023-03-03T20:41:51.006Z,9.10
2023-03-03T20:44:24.988Z,9.10
2023-03-03T20:46:59.293Z,9.10
2023-03-03T20:49:37.002Z,9.10
2023-03-03T20:52:07.039Z,9.00
2023-03-03T20:54:39.483Z,8.90
2023-03-03T20:57:09.256Z,8.90
2023-03-03T20:59:39.728Z,8.90
2023-03-03T21:02:14.613Z,9.00
2023-03-03T21:04:42.832Z,9.00
2023-03-03T21:07:10.878Z,9.00
2023-03-03T21:09:39.845Z,9.00
2023-03-03T21:12:12.503Z,9.10
2023-03-03T21:14:40.648Z,9.10
2023-03-03T21:17:26.185Z,9.10
2023-03-03T21:19:54.263Z,9.10
2023-03-03T21:22:22.497Z,9.00
2023-03-03T21:24:51.736Z,8.90
2023-03-03T21:27:27.654Z,8.90
2023-03-03T21:30:06.968Z,8.90
2023-03-03T21:32:38.418Z,8.90
2023-03-03T21:35:07.458Z,8.90
2023-03-03T21:37:49.830Z,9.00
2023-03-03T21:40:20.961Z,9.00
2023-03-03T21:42:49.695Z,9.00
2023-03-03T21:45:20.445Z,9.00
2023-03-03T21:47:49.901Z,9.00
2023-03-03T21:50:20.308Z,9.00
2023-03-03T21:52:48.458Z,8.90
2023-03-03T21:55:16.754Z,8.90
2023-03-03T21:57:44.869Z,8.80
2023-03-03T22:00:13.912Z,8.80
2023-03-03T22:02:41.996Z,8.90
2023-03-03T22:05:11.586Z,8.90
2023-03-03T22:07:39.718Z,8.90
2023-03-03T22:10:10.100Z,8.90
2023-03-03T22:12:38.212Z,8.90
2023-03-03T22:15:07.400Z,9.00
2023-03-03T22:17:35.441Z,8.90
2023-03-03T22:20:03.526Z,9.00
2023-03-03T22:22:33.001Z,8.90
2023-03-03T22:25:01.042Z,8.80
2023-03-03T22:27:29.102Z,8.80
2023-03-03T22:29:57.145Z,8.80
2023-03-03T22:32:25.275Z,8.70
2023-03-03T22:34:53.460Z,8.70
2023-03-03T22:37:21.605Z,8.80
2023-03-03T22:39:51.014Z,8.80
2023-03-03T22:42:19.067Z,8.80
2023-03-03T22:44:47.124Z,8.80
2023-03-03T22:47:15.221Z,8.90
2023-03-03T22:49:43.278Z,8.90
2023-03-03T22:52:11.745Z,8.90
2023-03-03T22:54:39.792Z,8.90
2023-03-03T22:57:09.243Z,8.90
2023-03-03T22:59:37.379Z,8.80
2023-03-03T23:02:08.589Z,8.80
2023-03-03T23:04:36.800Z,8.70
2023-03-03T23:07:05.408Z,8.70
2023-03-03T23:09:33.510Z,8.80
2023-03-03T23:12:02.025Z,8.80
2023-03-03T23:14:31.448Z,8.80
2023-03-03T23:16:59.536Z,8.80
2023-03-03T23:19:27.727Z,8.80
2023-03-03T23:21:55.846Z,8.90
2023-03-03T23:24:23.931Z,8.90
2023-03-03T23:26:56.841Z,8.90
2023-03-03T23:29:24.986Z,8.80
2023-03-03T23:31:54.583Z,8.70
2023-03-03T23:34:22.759Z,8.70
2023-03-03T23:36:51.238Z,8.70
2023-03-03T23:39:19.333Z,8.70
2023-03-03T23:41:47.406Z,8.80
2023-03-03T23:44:15.459Z,8.80
2023-03-03T23:46:43.721Z,8.80
2023-03-03T23:49:13.178Z,8.80
2023-03-03T23:51:41.287Z,8.90
2023-03-03T23:54:09.489Z,8.80
2023-03-03T23:56:37.602Z,8.90
2023-03-03T23:59:05.658Z,8.80
